sensor_id;sensor_type;location;lat;lon;timestamp;P1;durP1;ratioP1;P2;durP2;ratioP2
3943;SDS011;1986;52.546;13.428;2022-11-20T00:01:48;15.10;;;14.60;;
3943;SDS011;1986;52.546;13.428;2022-11-20T00:04:15;14.50;;;14.10;;
3943;SDS011;1986;52.546;13.428;2022-11-20T00:06:42;14.77;;;14.33;;
3943;SDS011;1986;52.546;13.428;2022-11-20T00:09:09;15.27;;;14.77;;
3943;SDS011;1986;52.546;13.428;2022-11-20T00:11:37;15.27;;;14.77;;
3943;SDS011;1986;52.546;13.428;2022-11-20T00:14:04;15.60;;;15.10;;
3943;SDS011;1986;52.546;13.428;2022-11-20T00:16:31;15.50;;;15.00;;
3943;SDS011;1986;52.546;13.428;2022-11-20T00:19:01;15.80;;;15.30;;
3943;SDS011;1986;52.546;13.428;2022-11-20T00:21:28;16.20;;;15.60;;
3943;SDS011;1986;52.546;13.428;2022-11-20T00:23:57;16.40;;;15.80;;
3943;SDS011;1986;52.546;13.428;2022-11-20T00:26:25;16.10;;;15.50;;
3943;SDS011;1986;52.546;13.428;2022-11-20T00:28:53;16.13;;;15.60;;
3943;SDS011;1986;52.546;13.428;2022-11-20T00:31:21;16.30;;;15.70;;
3943;SDS011;1986;52.546;13.428;2022-11-20T00:33:48;16.43;;;15.83;;
3943;SDS011;1986;52.546;13.428;2022-11-20T00:36:17;17.40;;;16.70;;
3943;SDS011;1986;52.546;13.428;2022-11-20T00:38:45;18.00;;;17.30;;
3943;SDS011;1986;52.546;13.428;2022-11-20T00:41:14;17.40;;;16.70;;
3943;SDS011;1986;52.546;13.428;2022-11-20T00:43:42;17.53;;;16.83;;
3943;SDS011;1986;52.546;13.428;2022-11-20T00:46:09;18.07;;;17.37;;
3943;SDS011;1986;52.546;13.428;2022-11-20T00:48:39;18.00;;;17.30;;
3943;SDS011;1986;52.546;13.428;2022-11-20T00:51:06;18.20;;;17.50;;
3943;SDS011;1986;52.546;13.428;2022-11-20T00:53:34;18.90;;;18.10;;
3943;SDS011;1986;52.546;13.428;2022-11-20T00:56:05;18.20;;;17.50;;
3943;SDS011;1986;52.546;13.428;2022-11-20T00:58:34;18.70;;;17.90;;
3943;SDS011;1986;52.546;13.428;2022-11-20T01:01:13;19.10;;;18.30;;
3943;SDS011;1986;52.546;13.428;2022-11-20T01:03:42;19.07;;;18.27;;
3943;SDS011;1986;52.546;13.428;2022-11-20T01:06:13;19.60;;;18.80;;
3943;SDS011;1986;52.546;13.428;2022-11-20T01:08:43;20.00;;;19.10;;
3943;SDS011;1986;52.546;13.428;2022-11-20T01:11:11;19.97;;;19.07;;
3943;SDS011;1986;52.546;13.428;2022-11-20T01:13:39;20.60;;;19.70;;
3943;SDS011;1986;52.546;13.428;2022-11-20T01:16:07;19.83;;;19.03;;
3943;SDS011;1986;52.546;13.428;2022-11-20T01:18:36;19.50;;;18.70;;
3943;SDS011;1986;52.546;13.428;2022-11-20T01:21:05;19.50;;;18.70;;
3943;SDS011;1986;52.546;13.428;2022-11-20T01:23:33;19.60;;;18.80;;
3943;SDS011;1986;52.546;13.428;2022-11-20T01:26:04;19.63;;;18.83;;
3943;SDS011;1986;52.546;13.428;2022-11-20T01:28:32;19.40;;;18.60;;
3943;SDS011;1986;52.546;13.428;2022-11-20T01:30:59;19.40;;;18.70;;
3943;SDS011;1986;52.546;13.428;2022-11-20T01:33:28;19.40;;;18.70;;
3943;SDS011;1986;52.546;13.428;2022-11-20T01:36:02;19.10;;;18.40;;
3943;SDS011;1986;52.546;13.428;2022-11-20T01:38:30;19.70;;;18.90;;
3943;SDS011;1986;52.546;13.428;2022-11-20T01:40:57;19.63;;;18.83;;
3943;SDS011;1986;52.546;13.428;2022-11-20T01:43:25;19.53;;;18.83;;
3943;SDS011;1986;52.546;13.428;2022-11-20T01:46:01;19.60;;;18.90;;
3943;SDS011;1986;52.546;13.428;2022-11-20T01:48:39;18.50;;;17.90;;
3943;SDS011;1986;52.546;13.428;2022-11-20T01:51:12;18.63;;;18.00;;
3943;SDS011;1986;52.546;13.428;2022-11-20T01:53:43;17.87;;;17.27;;
3943;SDS011;1986;52.546;13.428;2022-11-20T01:56:11;18.50;;;17.90;;
3943;SDS011;1986;52.546;13.428;2022-11-20T01:58:42;16.80;;;16.30;;
3943;SDS011;1986;52.546;13.428;2022-11-20T02:01:13;16.80;;;16.30;;
3943;SDS011;1986;52.546;13.428;2022-11-20T02:03:43;16.93;;;16.43;;
3943;SDS011;1986;52.546;13.428;2022-11-20T02:06:12;15.90;;;15.40;;
3943;SDS011;1986;52.546;13.428;2022-11-20T02:08:43;15.80;;;15.30;;
3943;SDS011;1986;52.546;13.428;2022-11-20T02:11:10;15.10;;;14.70;;
3943;SDS011;1986;52.546;13.428;2022-11-20T02:13:38;14.43;;;14.03;;
3943;SDS011;1986;52.546;13.428;2022-11-20T02:16:16;13.60;;;13.30;;
3943;SDS011;1986;52.546;13.428;2022-11-20T02:18:46;12.80;;;12.50;;
3943;SDS011;1986;52.546;13.428;2022-11-20T02:21:17;12.00;;;11.80;;
3943;SDS011;1986;52.546;13.428;2022-11-20T02:26:38;11.77;;;11.57;;
3943;SDS011;1986;52.546;13.428;2022-11-20T02:29:11;11.80;;;11.60;;
3943;SDS011;1986;52.546;13.428;2022-11-20T02:31:40;11.50;;;11.30;;
3943;SDS011;1986;52.546;13.428;2022-11-20T02:34:08;9.87;;;9.77;;
3943;SDS011;1986;52.546;13.428;2022-11-20T02:36:35;9.30;;;9.20;;
3943;SDS011;1986;52.546;13.428;2022-11-20T02:39:05;7.67;;;7.57;;
3943;SDS011;1986;52.546;13.428;2022-11-20T02:41:36;5.77;;;5.67;;
3943;SDS011;1986;52.546;13.428;2022-11-20T02:44:04;5.67;;;5.57;;
3943;SDS011;1986;52.546;13.428;2022-11-20T02:46:31;4.70;;;4.70;;
3943;SDS011;1986;52.546;13.428;2022-11-20T02:49:00;4.40;;;4.40;;
3943;SDS011;1986;52.546;13.428;2022-11-20T02:51:28;3.90;;;3.90;;
3943;SDS011;1986;52.546;13.428;2022-11-20T02:53:55;4.40;;;4.40;;
3943;SDS011;1986;52.546;13.428;2022-11-20T02:56:23;3.70;;;3.70;;
3943;SDS011;1986;52.546;13.428;2022-11-20T02:58:50;4.17;;;4.17;;
3943;SDS011;1986;52.546;13.428;2022-11-20T03:01:17;3.37;;;3.37;;
3943;SDS011;1986;52.546;13.428;2022-11-20T03:03:44;4.07;;;4.07;;
3943;SDS011;1986;52.546;13.428;2022-11-20T03:06:13;4.20;;;4.20;;
3943;SDS011;1986;52.546;13.428;2022-11-20T03:08:40;5.37;;;5.27;;
3943;SDS011;1986;52.546;13.428;2022-11-20T03:11:08;4.07;;;4.07;;
3943;SDS011;1986;52.546;13.428;2022-11-20T03:13:39;3.80;;;3.80;;
3943;SDS011;1986;52.546;13.428;2022-11-20T03:16:07;3.97;;;3.97;;
3943;SDS011;1986;52.546;13.428;2022-11-20T03:18:36;3.50;;;3.50;;
3943;SDS011;1986;52.546;13.428;2022-11-20T03:21:03;3.77;;;3.77;;
3943;SDS011;1986;52.546;13.428;2022-11-20T03:23:34;4.07;;;4.07;;
3943;SDS011;1986;52.546;13.428;2022-11-20T03:26:07;3.80;;;3.80;;
3943;SDS011;1986;52.546;13.428;2022-11-20T03:28:35;3.60;;;3.60;;
3943;SDS011;1986;52.546;13.428;2022-11-20T03:31:06;3.60;;;3.60;;
3943;SDS011;1986;52.546;13.428;2022-11-20T03:33:37;3.73;;;3.73;;
3943;SDS011;1986;52.546;13.428;2022-11-20T03:36:05;3.90;;;3.90;;
3943;SDS011;1986;52.546;13.428;2022-11-20T03:38:34;4.40;;;4.40;;
3943;SDS011;1986;52.546;13.428;2022-11-20T03:41:02;3.90;;;3.90;;
3943;SDS011;1986;52.546;13.428;2022-11-20T03:43:34;3.90;;;3.90;;
3943;SDS011;1986;52.546;13.428;2022-11-20T03:46:04;4.00;;;4.00;;
3943;SDS011;1986;52.546;13.428;2022-11-20T03:48:32;3.80;;;3.80;;
3943;SDS011;1986;52.546;13.428;2022-11-20T03:51:06;4.00;;;4.00;;
3943;SDS011;1986;52.546;13.428;2022-11-20T03:53:34;4.77;;;4.77;;
3943;SDS011;1986;52.546;13.428;2022-11-20T03:56:01;4.10;;;4.10;;
3943;SDS011;1986;52.546;13.428;2022-11-20T03:58:29;4.37;;;4.37;;
3943;SDS011;1986;52.546;13.428;2022-11-20T04:00:56;4.50;;;4.50;;
3943;SDS011;1986;52.546;13.428;2022-11-20T04:03:24;4.50;;;4.50;;
3943;SDS011;1986;52.546;13.428;2022-11-20T04:05:52;4.40;;;4.40;;
3943;SDS011;1986;52.546;13.428;2022-11-20T04:08:18;4.43;;;4.43;;
3943;SDS011;1986;52.546;13.428;2022-11-20T04:10:45;4.50;;;4.50;;
3943;SDS011;1986;52.546;13.428;2022-11-20T04:13:12;4.00;;;4.00;;
3943;SDS011;1986;52.546;13.428;2022-11-20T04:15:39;4.10;;;4.10;;
3943;SDS011;1986;52.546;13.428;2022-11-20T04:18:06;4.50;;;4.50;;
3943;SDS011;1986;52.546;13.428;2022-11-20T04:20:34;4.27;;;4.27;;
3943;SDS011;1986;52.546;13.428;2022-11-20T04:23:04;4.63;;;4.63;;
3943;SDS011;1986;52.546;13.428;2022-11-20T04:25:31;4.50;;;4.50;;
3943;SDS011;1986;52.546;13.428;2022-11-20T04:27:58;4.83;;;4.83;;
3943;SDS011;1986;52.546;13.428;2022-11-20T04:30:25;4.53;;;4.53;;
3943;SDS011;1986;52.546;13.428;2022-11-20T04:32:52;4.23;;;4.23;;
3943;SDS011;1986;52.546;13.428;2022-11-20T04:35:19;4.10;;;4.10;;
3943;SDS011;1986;52.546;13.428;2022-11-20T04:37:47;4.00;;;4.00;;
3943;SDS011;1986;52.546;13.428;2022-11-20T04:40:17;3.80;;;3.80;;
3943;SDS011;1986;52.546;13.428;2022-11-20T04:42:44;3.83;;;3.83;;
3943;SDS011;1986;52.546;13.428;2022-11-20T04:45:10;3.10;;;3.10;;
3943;SDS011;1986;52.546;13.428;2022-11-20T04:47:37;2.43;;;2.43;;
3943;SDS011;1986;52.546;13.428;2022-11-20T04:50:05;2.30;;;2.30;;
3943;SDS011;1986;52.546;13.428;2022-11-20T04:52:32;1.90;;;1.90;;
3943;SDS011;1986;52.546;13.428;2022-11-20T04:55:00;1.80;;;1.80;;
3943;SDS011;1986;52.546;13.428;2022-11-20T04:57:27;1.60;;;1.60;;
3943;SDS011;1986;52.546;13.428;2022-11-20T04:59:54;1.40;;;1.40;;
3943;SDS011;1986;52.546;13.428;2022-11-20T05:02:21;1.20;;;1.20;;
3943;SDS011;1986;52.546;13.428;2022-11-20T05:04:49;1.10;;;1.10;;
3943;SDS011;1986;52.546;13.428;2022-11-20T05:07:16;1.10;;;1.10;;
3943;SDS011;1986;52.546;13.428;2022-11-20T05:09:43;1.50;;;1.50;;
3943;SDS011;1986;52.546;13.428;2022-11-20T05:12:11;1.20;;;1.20;;
3943;SDS011;1986;52.546;13.428;2022-11-20T05:14:38;1.10;;;1.10;;
3943;SDS011;1986;52.546;13.428;2022-11-20T05:17:05;1.20;;;1.20;;
3943;SDS011;1986;52.546;13.428;2022-11-20T05:19:32;1.00;;;1.00;;
3943;SDS011;1986;52.546;13.428;2022-11-20T05:21:59;1.00;;;1.00;;
3943;SDS011;1986;52.546;13.428;2022-11-20T05:24:26;1.10;;;1.10;;
3943;SDS011;1986;52.546;13.428;2022-11-20T05:26:52;1.30;;;1.30;;
3943;SDS011;1986;52.546;13.428;2022-11-20T05:29:21;1.00;;;1.00;;
3943;SDS011;1986;52.546;13.428;2022-11-20T05:31:48;1.27;;;1.27;;
3943;SDS011;1986;52.546;13.428;2022-11-20T05:34:15;1.20;;;1.20;;
3943;SDS011;1986;52.546;13.428;2022-11-20T05:36:42;1.40;;;1.40;;
3943;SDS011;1986;52.546;13.428;2022-11-20T05:39:09;1.30;;;1.30;;
3943;SDS011;1986;52.546;13.428;2022-11-20T05:41:36;1.20;;;1.20;;
3943;SDS011;1986;52.546;13.428;2022-11-20T05:44:03;1.10;;;1.10;;
3943;SDS011;1986;52.546;13.428;2022-11-20T05:46:31;1.10;;;1.10;;
3943;SDS011;1986;52.546;13.428;2022-11-20T05:48:58;1.30;;;1.30;;
3943;SDS011;1986;52.546;13.428;2022-11-20T05:51:25;1.23;;;1.23;;
3943;SDS011;1986;52.546;13.428;2022-11-20T05:53:52;1.40;;;1.40;;
3943;SDS011;1986;52.546;13.428;2022-11-20T05:56:21;1.10;;;1.10;;
3943;SDS011;1986;52.546;13.428;2022-11-20T05:58:48;1.40;;;1.40;;
3943;SDS011;1986;52.546;13.428;2022-11-20T06:01:16;1.30;;;1.30;;
3943;SDS011;1986;52.546;13.428;2022-11-20T06:03:47;1.30;;;1.30;;
3943;SDS011;1986;52.546;13.428;2022-11-20T06:06:15;1.30;;;1.30;;
3943;SDS011;1986;52.546;13.428;2022-11-20T06:08:43;1.50;;;1.50;;
3943;SDS011;1986;52.546;13.428;2022-11-20T06:11:11;1.60;;;1.60;;
3943;SDS011;1986;52.546;13.428;2022-11-20T06:13:40;1.60;;;1.60;;
3943;SDS011;1986;52.546;13.428;2022-11-20T06:16:07;1.70;;;1.70;;
3943;SDS011;1986;52.546;13.428;2022-11-20T06:18:34;1.90;;;1.90;;
3943;SDS011;1986;52.546;13.428;2022-11-20T06:21:06;1.90;;;1.90;;
3943;SDS011;1986;52.546;13.428;2022-11-20T06:23:34;2.00;;;2.00;;
3943;SDS011;1986;52.546;13.428;2022-11-20T06:26:05;2.10;;;2.10;;
3943;SDS011;1986;52.546;13.428;2022-11-20T06:28:33;2.50;;;2.50;;
3943;SDS011;1986;52.546;13.428;2022-11-20T06:31:01;2.30;;;2.30;;
3943;SDS011;1986;52.546;13.428;2022-11-20T06:33:28;2.00;;;2.00;;
3943;SDS011;1986;52.546;13.428;2022-11-20T06:35:56;2.57;;;2.57;;
3943;SDS011;1986;52.546;13.428;2022-11-20T06:38:25;2.60;;;2.60;;
3943;SDS011;1986;52.546;13.428;2022-11-20T06:40:52;2.27;;;2.27;;
3943;SDS011;1986;52.546;13.428;2022-11-20T06:43:19;2.50;;;2.50;;
3943;SDS011;1986;52.546;13.428;2022-11-20T06:45:51;2.60;;;2.60;;
3943;SDS011;1986;52.546;13.428;2022-11-20T06:48:18;2.60;;;2.60;;
3943;SDS011;1986;52.546;13.428;2022-11-20T06:50:45;2.30;;;2.30;;
3943;SDS011;1986;52.546;13.428;2022-11-20T06:53:12;2.80;;;2.80;;
3943;SDS011;1986;52.546;13.428;2022-11-20T06:55:43;3.07;;;3.07;;
3943;SDS011;1986;52.546;13.428;2022-11-20T06:58:11;3.00;;;3.00;;
3943;SDS011;1986;52.546;13.428;2022-11-20T07:00:38;3.07;;;3.07;;
3943;SDS011;1986;52.546;13.428;2022-11-20T07:03:05;2.80;;;2.80;;
3943;SDS011;1986;52.546;13.428;2022-11-20T07:05:35;3.33;;;3.33;;
3943;SDS011;1986;52.546;13.428;2022-11-20T07:08:03;3.67;;;3.60;;
3943;SDS011;1986;52.546;13.428;2022-11-20T07:10:31;2.97;;;2.97;;
3943;SDS011;1986;52.546;13.428;2022-11-20T07:13:00;3.40;;;3.40;;
3943;SDS011;1986;52.546;13.428;2022-11-20T07:15:27;3.00;;;3.00;;
3943;SDS011;1986;52.546;13.428;2022-11-20T07:17:54;3.20;;;3.20;;
3943;SDS011;1986;52.546;13.428;2022-11-20T07:20:21;3.53;;;3.53;;
3943;SDS011;1986;52.546;13.428;2022-11-20T07:22:52;3.33;;;3.33;;
3943;SDS011;1986;52.546;13.428;2022-11-20T07:25:21;3.50;;;3.50;;
3943;SDS011;1986;52.546;13.428;2022-11-20T07:27:48;3.63;;;3.63;;
3943;SDS011;1986;52.546;13.428;2022-11-20T07:30:16;3.83;;;3.83;;
3943;SDS011;1986;52.546;13.428;2022-11-20T07:32:45;3.20;;;3.20;;
3943;SDS011;1986;52.546;13.428;2022-11-20T07:35:12;3.90;;;3.90;;
3943;SDS011;1986;52.546;13.428;2022-11-20T07:37:39;3.87;;;3.87;;
3943;SDS011;1986;52.546;13.428;2022-11-20T07:40:07;3.90;;;3.90;;
3943;SDS011;1986;52.546;13.428;2022-11-20T07:42:34;3.07;;;3.07;;
3943;SDS011;1986;52.546;13.428;2022-11-20T07:45:01;3.10;;;3.10;;
3943;SDS011;1986;52.546;13.428;2022-11-20T07:47:29;3.10;;;3.10;;
3943;SDS011;1986;52.546;13.428;2022-11-20T07:50:01;2.80;;;2.80;;
3943;SDS011;1986;52.546;13.428;2022-11-20T07:52:29;3.10;;;3.10;;
3943;SDS011;1986;52.546;13.428;2022-11-20T07:54:56;3.00;;;3.00;;
3943;SDS011;1986;52.546;13.428;2022-11-20T07:57:23;2.90;;;2.90;;
3943;SDS011;1986;52.546;13.428;2022-11-20T07:59:49;3.13;;;3.13;;
3943;SDS011;1986;52.546;13.428;2022-11-20T08:02:16;3.60;;;3.60;;
3943;SDS011;1986;52.546;13.428;2022-11-20T08:04:45;3.67;;;3.67;;
3943;SDS011;1986;52.546;13.428;2022-11-20T08:07:12;4.00;;;4.00;;
3943;SDS011;1986;52.546;13.428;2022-11-20T08:09:39;3.63;;;3.63;;
3943;SDS011;1986;52.546;13.428;2022-11-20T08:12:06;3.60;;;3.60;;
3943;SDS011;1986;52.546;13.428;2022-11-20T08:15:03;3.90;;;3.90;;
3943;SDS011;1986;52.546;13.428;2022-11-20T08:17:31;4.00;;;4.00;;
3943;SDS011;1986;52.546;13.428;2022-11-20T08:20:00;4.10;;;4.10;;
3943;SDS011;1986;52.546;13.428;2022-11-20T08:22:27;4.20;;;4.20;;
3943;SDS011;1986;52.546;13.428;2022-11-20T08:24:54;3.80;;;3.80;;
3943;SDS011;1986;52.546;13.428;2022-11-20T08:27:21;4.33;;;4.33;;
3943;SDS011;1986;52.546;13.428;2022-11-20T08:29:48;4.30;;;4.30;;
3943;SDS011;1986;52.546;13.428;2022-11-20T08:32:16;4.50;;;4.50;;
3943;SDS011;1986;52.546;13.428;2022-11-20T08:34:43;4.20;;;4.20;;
3943;SDS011;1986;52.546;13.428;2022-11-20T08:37:12;4.80;;;4.80;;
3943;SDS011;1986;52.546;13.428;2022-11-20T08:39:39;5.30;;;5.20;;
3943;SDS011;1986;52.546;13.428;2022-11-20T08:42:06;5.10;;;5.00;;
3943;SDS011;1986;52.546;13.428;2022-11-20T08:44:34;4.63;;;4.63;;
3943;SDS011;1986;52.546;13.428;2022-11-20T08:47:02;5.07;;;4.97;;
3943;SDS011;1986;52.546;13.428;2022-11-20T08:49:30;5.33;;;5.23;;
3943;SDS011;1986;52.546;13.428;2022-11-20T08:51:56;5.20;;;5.10;;
3943;SDS011;1986;52.546;13.428;2022-11-20T08:54:27;4.63;;;4.63;;
3943;SDS011;1986;52.546;13.428;2022-11-20T08:56:56;5.50;;;5.40;;
3943;SDS011;1986;52.546;13.428;2022-11-20T08:59:23;5.40;;;5.30;;
3943;SDS011;1986;52.546;13.428;2022-11-20T09:01:50;5.37;;;5.27;;
3943;SDS011;1986;52.546;13.428;2022-11-20T09:04:19;5.80;;;5.70;;
3943;SDS011;1986;52.546;13.428;2022-11-20T09:06:47;6.40;;;6.10;;
3943;SDS011;1986;52.546;13.428;2022-11-20T09:09:16;5.90;;;5.80;;
3943;SDS011;1986;52.546;13.428;2022-11-20T09:11:45;5.70;;;5.60;;
3943;SDS011;1986;52.546;13.428;2022-11-20T09:14:11;5.67;;;5.57;;
3943;SDS011;1986;52.546;13.428;2022-11-20T09:16:38;6.23;;;6.13;;
3943;SDS011;1986;52.546;13.428;2022-11-20T09:19:06;5.17;;;5.07;;
3943;SDS011;1986;52.546;13.428;2022-11-20T09:21:33;4.80;;;4.80;;
3943;SDS011;1986;52.546;13.428;2022-11-20T09:24:00;5.80;;;5.70;;
3943;SDS011;1986;52.546;13.428;2022-11-20T09:26:27;6.23;;;6.13;;
3943;SDS011;1986;52.546;13.428;2022-11-20T09:28:55;5.40;;;5.30;;
3943;SDS011;1986;52.546;13.428;2022-11-20T09:31:23;4.60;;;4.60;;
3943;SDS011;1986;52.546;13.428;2022-11-20T09:33:51;4.93;;;4.83;;
3943;SDS011;1986;52.546;13.428;2022-11-20T09:36:18;4.30;;;4.30;;
3943;SDS011;1986;52.546;13.428;2022-11-20T09:38:45;4.60;;;4.60;;
3943;SDS011;1986;52.546;13.428;2022-11-20T09:41:19;4.90;;;4.80;;
3943;SDS011;1986;52.546;13.428;2022-11-20T09:44:04;6.00;;;5.90;;
3943;SDS011;1986;52.546;13.428;2022-11-20T09:46:40;5.90;;;5.80;;
3943;SDS011;1986;52.546;13.428;2022-11-20T09:49:19;5.27;;;5.17;;
3943;SDS011;1986;52.546;13.428;2022-11-20T09:51:57;5.40;;;5.30;;
3943;SDS011;1986;52.546;13.428;2022-11-20T09:54:27;5.50;;;5.40;;
3943;SDS011;1986;52.546;13.428;2022-11-20T09:56:58;5.90;;;5.80;;
3943;SDS011;1986;52.546;13.428;2022-11-20T09:59:33;6.17;;;6.07;;
3943;SDS011;1986;52.546;13.428;2022-11-20T10:02:11;5.90;;;5.80;;
3943;SDS011;1986;52.546;13.428;2022-11-20T10:04:43;5.43;;;5.33;;
3943;SDS011;1986;52.546;13.428;2022-11-20T10:07:15;5.67;;;5.57;;
3943;SDS011;1986;52.546;13.428;2022-11-20T10:09:49;5.20;;;5.10;;
3943;SDS011;1986;52.546;13.428;2022-11-20T10:12:20;5.17;;;5.07;;
3943;SDS011;1986;52.546;13.428;2022-11-20T10:15:01;5.40;;;5.30;;
3943;SDS011;1986;52.546;13.428;2022-11-20T10:17:47;5.50;;;5.40;;
3943;SDS011;1986;52.546;13.428;2022-11-20T10:20:28;6.20;;;6.10;;
3943;SDS011;1986;52.546;13.428;2022-11-20T10:23:13;6.60;;;6.40;;
3943;SDS011;1986;52.546;13.428;2022-11-20T10:25:56;5.30;;;5.20;;
3943;SDS011;1986;52.546;13.428;2022-11-20T10:28:35;5.60;;;5.50;;
3943;SDS011;1986;52.546;13.428;2022-11-20T10:31:14;5.10;;;5.00;;
3943;SDS011;1986;52.546;13.428;2022-11-20T10:33:50;5.40;;;5.30;;
3943;SDS011;1986;52.546;13.428;2022-11-20T10:36:21;5.40;;;5.30;;
3943;SDS011;1986;52.546;13.428;2022-11-20T10:38:51;5.57;;;5.47;;
3943;SDS011;1986;52.546;13.428;2022-11-20T10:41:24;5.93;;;5.83;;
3943;SDS011;1986;52.546;13.428;2022-11-20T10:43:59;7.00;;;6.90;;
3943;SDS011;1986;52.546;13.428;2022-11-20T10:46:32;6.90;;;6.80;;
3943;SDS011;1986;52.546;13.428;2022-11-20T10:49:11;7.13;;;7.03;;
3943;SDS011;1986;52.546;13.428;2022-11-20T10:51:42;7.10;;;7.00;;
3943;SDS011;1986;52.546;13.428;2022-11-20T10:54:20;13.60;;;10.90;;
3943;SDS011;1986;52.546;13.428;2022-11-20T10:56:56;11.20;;;10.50;;
3943;SDS011;1986;52.546;13.428;2022-11-20T10:59:51;11.30;;;10.73;;
3943;SDS011;1986;52.546;13.428;2022-11-20T11:02:31;12.33;;;11.13;;
3943;SDS011;1986;52.546;13.428;2022-11-20T11:05:08;9.53;;;9.13;;
3943;SDS011;1986;52.546;13.428;2022-11-20T11:07:40;10.57;;;9.83;;
3943;SDS011;1986;52.546;13.428;2022-11-20T11:10:13;8.90;;;8.50;;
3943;SDS011;1986;52.546;13.428;2022-11-20T11:12:43;8.33;;;8.20;;
3943;SDS011;1986;52.546;13.428;2022-11-20T11:15:15;11.70;;;10.93;;
3943;SDS011;1986;52.546;13.428;2022-11-20T11:17:54;6.93;;;6.83;;
3943;SDS011;1986;52.546;13.428;2022-11-20T11:20:22;14.57;;;13.30;;
3943;SDS011;1986;52.546;13.428;2022-11-20T11:22:50;11.87;;;11.00;;
3943;SDS011;1986;52.546;13.428;2022-11-20T11:25:23;12.53;;;11.50;;
3943;SDS011;1986;52.546;13.428;2022-11-20T11:27:56;11.10;;;10.53;;
3943;SDS011;1986;52.546;13.428;2022-11-20T11:30:26;11.43;;;10.47;;
3943;SDS011;1986;52.546;13.428;2022-11-20T11:33:05;16.90;;;12.57;;
3943;SDS011;1986;52.546;13.428;2022-11-20T11:35:38;12.73;;;12.03;;
3943;SDS011;1986;52.546;13.428;2022-11-20T11:38:12;13.00;;;12.20;;
3943;SDS011;1986;52.546;13.428;2022-11-20T11:40:43;10.80;;;10.23;;
3943;SDS011;1986;52.546;13.428;2022-11-20T11:43:16;8.10;;;8.00;;
3943;SDS011;1986;52.546;13.428;2022-11-20T11:46:04;9.43;;;9.13;;
3943;SDS011;1986;52.546;13.428;2022-11-20T11:48:55;14.07;;;12.80;;
3943;SDS011;1986;52.546;13.428;2022-11-20T11:51:24;7.97;;;7.77;;
3943;SDS011;1986;52.546;13.428;2022-11-20T11:53:55;9.13;;;8.90;;
3943;SDS011;1986;52.546;13.428;2022-11-20T11:56:24;11.87;;;10.73;;
3943;SDS011;1986;52.546;13.428;2022-11-20T11:58:53;10.20;;;9.70;;
3943;SDS011;1986;52.546;13.428;2022-11-20T12:01:26;10.30;;;9.70;;
3943;SDS011;1986;52.546;13.428;2022-11-20T12:04:00;9.90;;;9.40;;
3943;SDS011;1986;52.546;13.428;2022-11-20T12:06:32;11.20;;;8.53;;
3943;SDS011;1986;52.546;13.428;2022-11-20T12:09:05;8.40;;;8.00;;
3943;SDS011;1986;52.546;13.428;2022-11-20T12:11:37;9.60;;;9.00;;
3943;SDS011;1986;52.546;13.428;2022-11-20T12:14:12;10.13;;;9.47;;
3943;SDS011;1986;52.546;13.428;2022-11-20T12:16:44;7.83;;;7.33;;
3943;SDS011;1986;52.546;13.428;2022-11-20T12:19:14;9.70;;;8.83;;
3943;SDS011;1986;52.546;13.428;2022-11-20T12:21:44;9.53;;;8.90;;
3943;SDS011;1986;52.546;13.428;2022-11-20T12:27:16;12.07;;;11.13;;
3943;SDS011;1986;52.546;13.428;2022-11-20T12:30:09;12.87;;;11.67;;
3943;SDS011;1986;52.546;13.428;2022-11-20T12:32:49;11.37;;;10.97;;
3943;SDS011;1986;52.546;13.428;2022-11-20T12:38:45;13.97;;;12.73;;
3943;SDS011;1986;52.546;13.428;2022-11-20T12:41:27;12.80;;;12.03;;
3943;SDS011;1986;52.546;13.428;2022-11-20T12:44:32;10.70;;;10.40;;
3943;SDS011;1986;52.546;13.428;2022-11-20T12:47:47;13.40;;;12.40;;
3943;SDS011;1986;52.546;13.428;2022-11-20T12:50:37;11.03;;;10.53;;
3943;SDS011;1986;52.546;13.428;2022-11-20T12:53:15;10.00;;;9.70;;
3943;SDS011;1986;52.546;13.428;2022-11-20T12:55:56;11.77;;;11.00;;
3943;SDS011;1986;52.546;13.428;2022-11-20T12:58:34;9.70;;;9.47;;
3943;SDS011;1986;52.546;13.428;2022-11-20T13:01:12;12.07;;;11.13;;
3943;SDS011;1986;52.546;13.428;2022-11-20T13:04:03;10.63;;;10.13;;
3943;SDS011;1986;52.546;13.428;2022-11-20T13:06:38;11.37;;;10.80;;
3943;SDS011;1986;52.546;13.428;2022-11-20T13:09:08;9.50;;;9.23;;
3943;SDS011;1986;52.546;13.428;2022-11-20T13:11:40;12.27;;;11.53;;
3943;SDS011;1986;52.546;13.428;2022-11-20T13:14:19;9.30;;;9.10;;
3943;SDS011;1986;52.546;13.428;2022-11-20T13:16:57;12.67;;;11.80;;
3943;SDS011;1986;52.546;13.428;2022-11-20T13:19:32;10.20;;;9.43;;
3943;SDS011;1986;52.546;13.428;2022-11-20T13:22:00;10.63;;;9.73;;
3943;SDS011;1986;52.546;13.428;2022-11-20T13:24:29;10.83;;;10.07;;
3943;SDS011;1986;52.546;13.428;2022-11-20T13:27:00;11.03;;;9.90;;
3943;SDS011;1986;52.546;13.428;2022-11-20T13:29:34;10.10;;;9.60;;
3943;SDS011;1986;52.546;13.428;2022-11-20T13:32:12;8.27;;;8.07;;
3943;SDS011;1986;52.546;13.428;2022-11-20T13:34:51;7.50;;;7.17;;
3943;SDS011;1986;52.546;13.428;2022-11-20T13:37:24;16.03;;;12.07;;
3943;SDS011;1986;52.546;13.428;2022-11-20T13:40:05;8.47;;;8.27;;
3943;SDS011;1986;52.546;13.428;2022-11-20T13:42:39;10.50;;;9.80;;
3943;SDS011;1986;52.546;13.428;2022-11-20T13:45:21;8.20;;;7.80;;
3943;SDS011;1986;52.546;13.428;2022-11-20T13:47:50;9.43;;;8.80;;
3943;SDS011;1986;52.546;13.428;2022-11-20T13:50:31;9.70;;;8.80;;
3943;SDS011;1986;52.546;13.428;2022-11-20T13:53:10;12.83;;;11.77;;
3943;SDS011;1986;52.546;13.428;2022-11-20T13:55:53;11.63;;;10.77;;
3943;SDS011;1986;52.546;13.428;2022-11-20T13:58:30;21.70;;;10.50;;
3943;SDS011;1986;52.546;13.428;2022-11-20T14:01:09;12.53;;;11.73;;
3943;SDS011;1986;52.546;13.428;2022-11-20T14:03:41;10.27;;;9.63;;
3943;SDS011;1986;52.546;13.428;2022-11-20T14:06:11;11.20;;;10.10;;
3943;SDS011;1986;52.546;13.428;2022-11-20T14:08:44;8.37;;;7.83;;
3943;SDS011;1986;52.546;13.428;2022-11-20T14:11:15;14.20;;;10.40;;
3943;SDS011;1986;52.546;13.428;2022-11-20T14:13:51;16.90;;;8.67;;
3943;SDS011;1986;52.546;13.428;2022-11-20T14:16:24;11.20;;;10.10;;
3943;SDS011;1986;52.546;13.428;2022-11-20T14:18:53;8.00;;;7.57;;
3943;SDS011;1986;52.546;13.428;2022-11-20T14:21:43;10.70;;;9.93;;
3943;SDS011;1986;52.546;13.428;2022-11-20T14:24:21;7.93;;;7.43;;
3943;SDS011;1986;52.546;13.428;2022-11-20T14:26:53;10.60;;;9.70;;
3943;SDS011;1986;52.546;13.428;2022-11-20T14:31:31;13.40;;;12.00;;
3943;SDS011;1986;52.546;13.428;2022-11-20T14:32:50;10.00;;;9.20;;
3943;SDS011;1986;52.546;13.428;2022-11-20T14:38:35;11.33;;;10.50;;
3943;SDS011;1986;52.546;13.428;2022-11-20T14:51:42;9.30;;;8.80;;
3943;SDS011;1986;52.546;13.428;2022-11-20T14:54:30;9.17;;;8.53;;
3943;SDS011;1986;52.546;13.428;2022-11-20T14:57:05;9.80;;;8.33;;
3943;SDS011;1986;52.546;13.428;2022-11-20T14:59:46;11.60;;;9.97;;
3943;SDS011;1986;52.546;13.428;2022-11-20T15:02:18;8.93;;;8.60;;
3943;SDS011;1986;52.546;13.428;2022-11-20T15:04:47;8.00;;;7.80;;
3943;SDS011;1986;52.546;13.428;2022-11-20T15:07:24;6.80;;;6.70;;
3943;SDS011;1986;52.546;13.428;2022-11-20T15:10:01;17.43;;;8.43;;
3943;SDS011;1986;52.546;13.428;2022-11-20T15:12:30;10.23;;;9.40;;
3943;SDS011;1986;52.546;13.428;2022-11-20T15:14:59;8.50;;;8.10;;
3943;SDS011;1986;52.546;13.428;2022-11-20T15:17:30;14.00;;;11.60;;
3943;SDS011;1986;52.546;13.428;2022-11-20T15:20:05;10.67;;;9.77;;
3943;SDS011;1986;52.546;13.428;2022-11-20T15:22:39;12.97;;;11.13;;
3943;SDS011;1986;52.546;13.428;2022-11-20T15:25:11;9.10;;;8.60;;
3943;SDS011;1986;52.546;13.428;2022-11-20T15:27:41;12.60;;;11.23;;
3943;SDS011;1986;52.546;13.428;2022-11-20T15:30:12;10.40;;;9.60;;
3943;SDS011;1986;52.546;13.428;2022-11-20T15:32:40;10.47;;;9.87;;
3943;SDS011;1986;52.546;13.428;2022-11-20T15:35:11;10.13;;;9.67;;
3943;SDS011;1986;52.546;13.428;2022-11-20T15:37:40;9.67;;;8.73;;
3943;SDS011;1986;52.546;13.428;2022-11-20T15:40:08;10.07;;;9.50;;